»·PEaware :: CLX419 KLAX-KOAK

CLX419 :: KLAX-KOAK

FLIGHT INFORMATION

Flight Status: Arrived
Operator:
Cargolux Airlines International
More flights by this operator :: More flights under this callsign
Pilot: Nils Z. (23708)
Aircraft: Unknown
(B748)
More flights by this aircraft type
Origin: KLAX Los Angeles Intl
United States
Destination: KOAK Metro Oakland Intl
United States
More flights between these airports :: More routes between these airports
Route: LADYJ4 COREZ RGOOD EMZOH3
File this flight plan on PilotEdge
Remarks: RMK / SIMBRIEF
Altitude:
(Current/Filed)
32,000ft
Speed:
(Current/Filed)
482kts
Departed: 01-Mar-19 03:44 PM
Arrived: 01-Mar-19 04:49 PM
Distance/Time
Traveled:
292nm/1:05
Distance/Time
To Go:
Arrived

Flight Plot

Page will automatically refresh every two minutes.

Flight plan parsing failed; only flown route is shown


Map Options




Map Legend


Flown Route
Filed Route
Departure Airport
Arrival Airport
Navaid (VOR, NDB)
Fix

Horizontal Profiles

Position Reports

Time Latitude Longitude Heading Altitude Ground
Speed
01-Mar-19 15:11 33.934045 -118.380488 136 107ft 0kts
01-Mar-19 15:12 33.934045 -118.380488 136 107ft 0kts
01-Mar-19 15:13 33.934045 -118.380488 136 107ft 0kts
01-Mar-19 15:14 33.934045 -118.380488 136 107ft 0kts
01-Mar-19 15:15 33.934045 -118.380488 136 107ft 0kts
01-Mar-19 15:16 33.934045 -118.380488 136 107ft 0kts
01-Mar-19 15:17 33.934045 -118.380488 136 107ft 0kts
01-Mar-19 15:18 33.934045 -118.380488 136 107ft 0kts
01-Mar-19 15:19 33.934045 -118.380488 136 107ft 0kts
01-Mar-19 15:20 33.934045 -118.380488 136 107ft 0kts
01-Mar-19 15:21 33.934045 -118.380488 136 107ft 0kts
01-Mar-19 15:22 33.934045 -118.380488 136 107ft 0kts
01-Mar-19 15:23 33.934045 -118.380488 136 107ft 0kts
01-Mar-19 15:24 33.934045 -118.380488 136 107ft 0kts
01-Mar-19 15:25 33.934045 -118.380488 136 107ft 0kts
01-Mar-19 15:26 33.934045 -118.380489 136 107ft 0kts
01-Mar-19 15:27 33.934045 -118.380489 136 107ft 0kts
01-Mar-19 15:28 33.934045 -118.380489 136 107ft 0kts
01-Mar-19 15:29 33.934045 -118.380489 136 107ft 0kts
01-Mar-19 15:30 33.934045 -118.380489 136 107ft 0kts
01-Mar-19 15:31 33.934045 -118.380489 136 107ft 0kts
01-Mar-19 15:32 33.934045 -118.380489 136 107ft 0kts
01-Mar-19 15:33 33.934045 -118.380489 136 107ft 0kts
01-Mar-19 15:34 33.934213 -118.380912 75 107ft 2kts
01-Mar-19 15:35 33.933880 -118.381311 358 107ft 0kts
01-Mar-19 15:36 33.933804 -118.381306 0 107ft 0kts
01-Mar-19 15:37 33.933804 -118.381306 0 107ft 0kts
01-Mar-19 15:38 33.933823 -118.381306 0 107ft 0kts
01-Mar-19 15:39 33.935678 -118.381289 345 107ft 11kts
01-Mar-19 15:40 33.936197 -118.382444 279 107ft 0kts
01-Mar-19 15:41 33.936238 -118.382555 302 107ft 2kts
01-Mar-19 15:42 33.937159 -118.382879 312 107ft 3kts
01-Mar-19 15:43 33.936513 -118.390908 262 112ft 106kts
01-Mar-19 15:44 33.931643 -118.437377 263 1058ft 202kts
01-Mar-19 15:45 33.927289 -118.504229 265 3248ft 246kts
01-Mar-19 15:46 33.921045 -118.584304 266 6034ft 271kts
01-Mar-19 15:47 33.950911 -118.650031 324 7063ft 278kts
01-Mar-19 15:48 34.008819 -118.676128 356 6072ft 271kts
01-Mar-19 15:49 34.076180 -118.671214 7 8260ft 289kts
01-Mar-19 15:50 34.136754 -118.658210 10 10813ft 294kts
01-Mar-19 15:51 34.205287 -118.641988 10 11854ft 355kts
01-Mar-19 15:52 34.294071 -118.639228 349 12899ft 396kts
01-Mar-19 15:53 34.382707 -118.664189 346 14435ft 413kts
01-Mar-19 15:54 34.469460 -118.699063 332 16884ft 420kts
01-Mar-19 15:55 34.554163 -118.764222 326 18994ft 436kts
01-Mar-19 15:56 34.639197 -118.827541 330 20891ft 448kts
01-Mar-19 15:57 34.725153 -118.885516 330 22613ft 459kts
01-Mar-19 15:58 34.813336 -118.947966 329 24242ft 470kts
01-Mar-19 15:59 34.902943 -119.012573 329 25771ft 481kts
01-Mar-19 16:00 34.983808 -119.070256 329 27045ft 490kts
01-Mar-19 16:01 35.070203 -119.132186 329 28317ft 500kts
01-Mar-19 16:02 35.160287 -119.196913 329 29661ft 507kts
01-Mar-19 16:03 35.256212 -119.265341 329 31616ft 501kts
01-Mar-19 16:04 35.346881 -119.330706 329 33178ft 497kts
01-Mar-19 16:05 35.435078 -119.394848 329 34471ft 494kts
01-Mar-19 16:06 35.528608 -119.463057 329 35662ft 491kts
01-Mar-19 16:07 35.612455 -119.536945 318 36003ft 485kts
01-Mar-19 16:08 35.685058 -119.622235 315 35999ft 487kts
01-Mar-19 16:09 35.752979 -119.703187 316 35999ft 488kts
01-Mar-19 16:10 35.822597 -119.783094 317 35999ft 488kts
01-Mar-19 16:11 35.894561 -119.863866 317 35999ft 488kts
01-Mar-19 16:12 35.965297 -119.943264 317 35998ft 488kts
01-Mar-19 16:13 36.037329 -120.024717 317 35999ft 488kts
01-Mar-19 16:14 36.107575 -120.104508 317 35999ft 488kts
01-Mar-19 16:15 36.176490 -120.182142 317 35897ft 486kts
01-Mar-19 16:16 36.244168 -120.258368 317 34986ft 458kts
01-Mar-19 16:17 36.309989 -120.333481 317 33906ft 464kts
01-Mar-19 16:18 36.376232 -120.409630 316 32428ft 461kts
01-Mar-19 16:19 36.444101 -120.487871 317 30872ft 447kts
01-Mar-19 16:20 36.510648 -120.564570 317 29296ft 433kts
01-Mar-19 16:21 36.578417 -120.641492 318 27658ft 421kts
01-Mar-19 16:22 36.645825 -120.715925 318 26009ft 410kts
01-Mar-19 16:23 36.709033 -120.786425 318 24422ft 401kts
01-Mar-19 16:24 36.771803 -120.856192 318 22829ft 391kts
01-Mar-19 16:25 36.836722 -120.928244 318 21278ft 380kts
01-Mar-19 16:26 36.903756 -121.002797 318 19641ft 372kts
01-Mar-19 16:27 36.966718 -121.072942 318 18071ft 364kts
01-Mar-19 16:28 37.028118 -121.141281 318 16504ft 356kts
01-Mar-19 16:29 37.092733 -121.213404 318 15597ft 342kts
01-Mar-19 16:30 37.149706 -121.277030 318 14890ft 353kts
01-Mar-19 16:31 37.207790 -121.343918 317 13415ft 341kts
01-Mar-19 16:32 37.263279 -121.408234 317 12017ft 328kts
01-Mar-19 16:33 37.315811 -121.469782 317 10694ft 316kts
01-Mar-19 16:34 37.364988 -121.527908 317 9523ft 303kts
01-Mar-19 16:35 37.416465 -121.587230 318 8260ft 276kts
01-Mar-19 16:36 37.456957 -121.642498 306 7296ft 264kts
01-Mar-19 16:37 37.492577 -121.706930 305 6524ft 262kts
01-Mar-19 16:38 37.525363 -121.766707 294 5876ft 261kts
01-Mar-19 16:39 37.537337 -121.828074 278 5361ft 259kts
01-Mar-19 16:40 37.545432 -121.896388 278 4776ft 241kts
01-Mar-19 16:41 37.553042 -121.959117 278 4180ft 222kts
01-Mar-19 16:42 37.566229 -122.012002 309 3597ft 220kts
01-Mar-19 16:43 37.595257 -122.055301 310 3012ft 206kts
01-Mar-19 16:44 37.623275 -122.097222 310 2409ft 204kts
01-Mar-19 16:45 37.651356 -122.139321 310 1578ft 188kts
01-Mar-19 16:46 37.675914 -122.175992 310 834ft 156kts
01-Mar-19 16:47 37.696334 -122.206511 309 225ft 154kts
01-Mar-19 16:49 37.710997 -122.228475 310 18ft 36kts
01-Mar-19 16:50 37.714785 -122.231156 53 18ft 5kts
01-Mar-19 16:51 37.713419 -122.228391 129 18ft 17kts
01-Mar-19 16:52 37.711078 -122.224361 72 18ft 14kts
01-Mar-19 16:53 37.712675 -122.221718 116 18ft 5kts
01-Mar-19 16:54 37.711810 -122.220644 195 18ft 4kts
01-Mar-19 16:55 37.711248 -122.221136 219 18ft 1kts
01-Mar-19 16:56 37.711139 -122.221249 220 18ft 0kts
01-Mar-19 16:57 37.711139 -122.221249 220 18ft 0kts
01-Mar-19 16:58 37.711139 -122.221249 220 18ft 0kts

Navigation Log

Ident Type
Flight plan parsing failed, navigation log unavailable